sensor_id;sensor_type;location;lat;lon;timestamp;pressure;altitude;pressure_sealevel;temperature;humidity
24620;BME280;12763;55.802;37.404;2023-04-07T00:00:50;100376.81;;;8.12;47.10
24620;BME280;12763;55.802;37.404;2023-04-07T00:03:16;100377.88;;;8.11;47.03
24620;BME280;12763;55.802;37.404;2023-04-07T00:05:42;100375.31;;;8.10;47.25
24620;BME280;12763;55.802;37.404;2023-04-07T00:08:08;100384.09;;;8.05;47.18
24620;BME280;12763;55.802;37.404;2023-04-07T00:10:34;100372.81;;;8.00;47.46
24620;BME280;12763;55.802;37.404;2023-04-07T00:13:00;100374.69;;;8.00;47.52
24620;BME280;12763;55.802;37.404;2023-04-07T00:15:26;100372.13;;;7.98;47.53
24620;BME280;12763;55.802;37.404;2023-04-07T00:17:52;100367.38;;;7.92;48.10
24620;BME280;12763;55.802;37.404;2023-04-07T00:20:18;100374.56;;;7.93;47.68
24620;BME280;12763;55.802;37.404;2023-04-07T00:22:44;100375.28;;;7.87;47.78
24620;BME280;12763;55.802;37.404;2023-04-07T00:25:10;100370.47;;;7.89;47.85
24620;BME280;12763;55.802;37.404;2023-04-07T00:27:35;100379.44;;;7.83;47.81
24620;BME280;12763;55.802;37.404;2023-04-07T00:30:02;100378.78;;;7.81;47.86
24620;BME280;12763;55.802;37.404;2023-04-07T00:32:29;100372.78;;;7.78;48.06
24620;BME280;12763;55.802;37.404;2023-04-07T00:34:55;100370.59;;;7.73;48.21
24620;BME280;12763;55.802;37.404;2023-04-07T00:37:21;100371.47;;;7.65;48.26
24620;BME280;12763;55.802;37.404;2023-04-07T00:39:46;100372.00;;;7.61;48.37
24620;BME280;12763;55.802;37.404;2023-04-07T00:42:12;100370.44;;;7.66;48.15
24620;BME280;12763;55.802;37.404;2023-04-07T00:44:38;100369.25;;;7.61;48.35
24620;BME280;12763;55.802;37.404;2023-04-07T00:47:04;100377.50;;;7.61;48.33
24620;BME280;12763;55.802;37.404;2023-04-07T00:49:30;100374.75;;;7.61;48.36
24620;BME280;12763;55.802;37.404;2023-04-07T00:51:57;100374.44;;;7.56;48.52
24620;BME280;12763;55.802;37.404;2023-04-07T00:54:23;100363.81;;;7.53;48.85
24620;BME280;12763;55.802;37.404;2023-04-07T00:56:49;100371.75;;;7.48;48.66
24620;BME280;12763;55.802;37.404;2023-04-07T00:59:15;100370.22;;;7.45;48.90
24620;BME280;12763;55.802;37.404;2023-04-07T01:04:26;100372.22;;;7.51;49.11
24620;BME280;12763;55.802;37.404;2023-04-07T01:07:03;100375.81;;;7.52;48.77
24620;BME280;12763;55.802;37.404;2023-04-07T01:09:57;100369.97;;;7.55;48.88
24620;BME280;12763;55.802;37.404;2023-04-07T01:12:49;100378.59;;;7.44;49.19
24620;BME280;12763;55.802;37.404;2023-04-07T01:15:20;100378.97;;;7.41;49.12
24620;BME280;12763;55.802;37.404;2023-04-07T01:17:58;100383.59;;;7.40;49.02
24620;BME280;12763;55.802;37.404;2023-04-07T01:20:26;100379.31;;;7.38;48.81
24620;BME280;12763;55.802;37.404;2023-04-07T01:23:03;100383.47;;;7.34;49.07
24620;BME280;12763;55.802;37.404;2023-04-07T01:28:37;100384.69;;;7.31;49.24
24620;BME280;12763;55.802;37.404;2023-04-07T01:31:04;100384.88;;;7.22;49.26
24620;BME280;12763;55.802;37.404;2023-04-07T01:33:31;100392.78;;;7.17;49.47
24620;BME280;12763;55.802;37.404;2023-04-07T01:36:02;100386.94;;;7.20;49.41
24620;BME280;12763;55.802;37.404;2023-04-07T01:38:29;100386.13;;;7.11;49.76
24620;BME280;12763;55.802;37.404;2023-04-07T01:40:57;100386.97;;;7.12;49.60
24620;BME280;12763;55.802;37.404;2023-04-07T01:43:24;100383.38;;;7.11;49.71
24620;BME280;12763;55.802;37.404;2023-04-07T01:45:53;100373.06;;;7.13;49.60
24620;BME280;12763;55.802;37.404;2023-04-07T01:48:19;100379.97;;;7.01;49.76
24620;BME280;12763;55.802;37.404;2023-04-07T01:50:46;100382.00;;;7.07;49.39
24620;BME280;12763;55.802;37.404;2023-04-07T01:53:14;100385.09;;;6.96;49.91
24620;BME280;12763;55.802;37.404;2023-04-07T01:55:41;100385.81;;;6.98;49.80
24620;BME280;12763;55.802;37.404;2023-04-07T01:58:08;100386.31;;;6.93;49.86
24620;BME280;12763;55.802;37.404;2023-04-07T02:00:37;100387.69;;;6.97;49.69
24620;BME280;12763;55.802;37.404;2023-04-07T02:03:19;100389.22;;;7.00;49.93
24620;BME280;12763;55.802;37.404;2023-04-07T02:05:50;100385.84;;;6.90;49.92
24620;BME280;12763;55.802;37.404;2023-04-07T02:08:20;100385.84;;;6.90;49.93
24620;BME280;12763;55.802;37.404;2023-04-07T02:10:49;100382.25;;;6.81;50.08
24620;BME280;12763;55.802;37.404;2023-04-07T02:13:18;100384.97;;;6.89;50.09
24620;BME280;12763;55.802;37.404;2023-04-07T02:15:48;100383.47;;;6.79;50.35
24620;BME280;12763;55.802;37.404;2023-04-07T02:18:18;100390.81;;;6.78;50.36
24620;BME280;12763;55.802;37.404;2023-04-07T02:20:44;100391.34;;;6.66;50.89
24620;BME280;12763;55.802;37.404;2023-04-07T02:23:12;100393.59;;;6.62;50.79
24620;BME280;12763;55.802;37.404;2023-04-07T02:25:38;100395.28;;;6.63;50.41
24620;BME280;12763;55.802;37.404;2023-04-07T02:28:04;100393.59;;;6.62;51.07
24620;BME280;12763;55.802;37.404;2023-04-07T02:30:31;100393.06;;;6.59;50.76
24620;BME280;12763;55.802;37.404;2023-04-07T02:32:57;100399.91;;;6.55;50.97
24620;BME280;12763;55.802;37.404;2023-04-07T02:35:23;100395.81;;;6.50;50.81
24620;BME280;12763;55.802;37.404;2023-04-07T02:37:49;100392.91;;;6.52;51.14
24620;BME280;12763;55.802;37.404;2023-04-07T02:40:15;100397.69;;;6.50;51.18
24620;BME280;12763;55.802;37.404;2023-04-07T02:42:41;100394.97;;;6.50;51.46
24620;BME280;12763;55.802;37.404;2023-04-07T02:45:08;100400.44;;;6.50;51.32
24620;BME280;12763;55.802;37.404;2023-04-07T02:47:36;100388.97;;;6.46;51.05
24620;BME280;12763;55.802;37.404;2023-04-07T02:50:02;100393.75;;;6.44;51.29
24620;BME280;12763;55.802;37.404;2023-04-07T02:52:28;100395.63;;;6.44;51.28
24620;BME280;12763;55.802;37.404;2023-04-07T02:54:54;100400.78;;;6.39;51.63
24620;BME280;12763;55.802;37.404;2023-04-07T02:57:24;100399.78;;;6.40;51.54
24620;BME280;12763;55.802;37.404;2023-04-07T02:59:53;100399.09;;;6.46;51.92
24620;BME280;12763;55.802;37.404;2023-04-07T03:02:21;100393.06;;;6.50;51.47
24620;BME280;12763;55.802;37.404;2023-04-07T03:04:46;100396.50;;;6.36;52.02
24620;BME280;12763;55.802;37.404;2023-04-07T03:07:15;100407.13;;;6.31;52.18
24620;BME280;12763;55.802;37.404;2023-04-07T03:09:41;100406.78;;;6.18;52.22
24620;BME280;12763;55.802;37.404;2023-04-07T03:12:07;100403.00;;;6.35;52.29
24620;BME280;12763;55.802;37.404;2023-04-07T03:14:34;100402.84;;;6.29;52.01
24620;BME280;12763;55.802;37.404;2023-04-07T03:17:00;100413.13;;;6.35;52.08
24620;BME280;12763;55.802;37.404;2023-04-07T03:19:26;100408.34;;;6.45;51.76
24620;BME280;12763;55.802;37.404;2023-04-07T03:21:52;100409.34;;;6.60;51.67
24620;BME280;12763;55.802;37.404;2023-04-07T03:24:18;100408.31;;;6.69;51.25
24620;BME280;12763;55.802;37.404;2023-04-07T03:26:45;100412.44;;;6.65;51.09
24620;BME280;12763;55.802;37.404;2023-04-07T03:29:23;100416.19;;;6.80;51.16
24620;BME280;12763;55.802;37.404;2023-04-07T03:31:50;100420.81;;;6.80;51.17
24620;BME280;12763;55.802;37.404;2023-04-07T03:34:20;100415.88;;;6.67;51.21
24620;BME280;12763;55.802;37.404;2023-04-07T03:36:46;100414.50;;;6.55;51.68
24620;BME280;12763;55.802;37.404;2023-04-07T03:39:12;100418.63;;;6.43;51.95
24620;BME280;12763;55.802;37.404;2023-04-07T03:41:37;100422.38;;;6.58;51.45
24620;BME280;12763;55.802;37.404;2023-04-07T03:44:04;100421.50;;;6.66;51.50
24620;BME280;12763;55.802;37.404;2023-04-07T03:46:32;100418.94;;;6.64;51.42
24620;BME280;12763;55.802;37.404;2023-04-07T03:48:58;100426.50;;;6.62;51.89
24620;BME280;12763;55.802;37.404;2023-04-07T03:51:25;100433.53;;;6.73;51.23
24620;BME280;12763;55.802;37.404;2023-04-07T03:53:54;100435.94;;;6.68;51.42
24620;BME280;12763;55.802;37.404;2023-04-07T03:56:40;100435.59;;;6.71;51.54
24620;BME280;12763;55.802;37.404;2023-04-07T03:59:06;100431.78;;;6.72;51.64
24620;BME280;12763;55.802;37.404;2023-04-07T04:01:36;100439.19;;;6.79;51.42
24620;BME280;12763;55.802;37.404;2023-04-07T04:04:09;100433.34;;;6.74;51.74
24620;BME280;12763;55.802;37.404;2023-04-07T04:06:35;100434.38;;;6.73;51.31
24620;BME280;12763;55.802;37.404;2023-04-07T04:09:19;100431.44;;;6.91;50.86
24620;BME280;12763;55.802;37.404;2023-04-07T04:11:47;100433.50;;;6.97;50.73
24620;BME280;12763;55.802;37.404;2023-04-07T04:14:14;100434.31;;;7.05;51.06
24620;BME280;12763;55.802;37.404;2023-04-07T04:16:45;100440.69;;;7.06;50.67
24620;BME280;12763;55.802;37.404;2023-04-07T04:19:24;100433.66;;;7.03;51.07
24620;BME280;12763;55.802;37.404;2023-04-07T04:21:51;100444.63;;;7.12;50.97
24620;BME280;12763;55.802;37.404;2023-04-07T04:24:17;100431.56;;;7.14;50.38
24620;BME280;12763;55.802;37.404;2023-04-07T04:26:44;100443.72;;;7.19;50.72
24620;BME280;12763;55.802;37.404;2023-04-07T04:29:12;100447.88;;;7.07;50.67
24620;BME280;12763;55.802;37.404;2023-04-07T04:31:40;100444.41;;;7.21;50.72
24620;BME280;12763;55.802;37.404;2023-04-07T04:34:06;100441.16;;;7.26;50.55
24620;BME280;12763;55.802;37.404;2023-04-07T04:36:32;100443.56;;;7.21;50.52
24620;BME280;12763;55.802;37.404;2023-04-07T04:39:03;100452.28;;;7.32;49.95
24620;BME280;12763;55.802;37.404;2023-04-07T04:41:30;100450.38;;;7.41;50.00
24620;BME280;12763;55.802;37.404;2023-04-07T04:43:56;100451.09;;;7.19;50.43
24620;BME280;12763;55.802;37.404;2023-04-07T04:46:25;100449.84;;;7.45;50.63
24620;BME280;12763;55.802;37.404;2023-04-07T04:48:51;100454.63;;;7.43;49.88
24620;BME280;12763;55.802;37.404;2023-04-07T04:51:19;100456.53;;;7.51;49.75
24620;BME280;12763;55.802;37.404;2023-04-07T04:53:50;100455.31;;;7.53;49.67
24620;BME280;12763;55.802;37.404;2023-04-07T04:56:16;100456.81;;;7.64;49.52
24620;BME280;12763;55.802;37.404;2023-04-07T04:58:45;100450.25;;;7.73;49.04
24620;BME280;12763;55.802;37.404;2023-04-07T05:01:16;100445.56;;;7.82;48.89
24620;BME280;12763;55.802;37.404;2023-04-07T05:03:49;100452.31;;;7.71;49.89
24620;BME280;12763;55.802;37.404;2023-04-07T05:06:21;100457.84;;;7.63;49.73
24620;BME280;12763;55.802;37.404;2023-04-07T05:08:49;100456.41;;;7.75;49.35
24620;BME280;12763;55.802;37.404;2023-04-07T05:11:17;100462.84;;;7.90;48.52
24620;BME280;12763;55.802;37.404;2023-04-07T05:13:48;100462.22;;;7.80;48.92
24620;BME280;12763;55.802;37.404;2023-04-07T05:16:14;100458.38;;;7.97;48.74
24620;BME280;12763;55.802;37.404;2023-04-07T05:18:40;100462.78;;;8.06;48.75
24620;BME280;12763;55.802;37.404;2023-04-07T05:21:06;100464.50;;;8.07;48.65
24620;BME280;12763;55.802;37.404;2023-04-07T05:23:34;100465.09;;;8.17;48.30
24620;BME280;12763;55.802;37.404;2023-04-07T05:26:01;100469.72;;;8.33;48.17
24620;BME280;12763;55.802;37.404;2023-04-07T05:28:28;100474.00;;;8.36;48.10
24620;BME280;12763;55.802;37.404;2023-04-07T05:30:57;100467.47;;;8.37;48.06
24620;BME280;12763;55.802;37.404;2023-04-07T05:33:28;100477.19;;;8.47;47.87
24620;BME280;12763;55.802;37.404;2023-04-07T05:35:54;100472.28;;;8.57;47.75
24620;BME280;12763;55.802;37.404;2023-04-07T05:38:20;100465.44;;;8.53;47.80
24620;BME280;12763;55.802;37.404;2023-04-07T05:40:46;100471.56;;;8.63;47.53
24620;BME280;12763;55.802;37.404;2023-04-07T05:43:19;100472.41;;;8.64;47.60
24620;BME280;12763;55.802;37.404;2023-04-07T05:45:44;100474.88;;;8.59;47.92
24620;BME280;12763;55.802;37.404;2023-04-07T05:48:10;100482.28;;;8.73;47.55
24620;BME280;12763;55.802;37.404;2023-04-07T05:50:42;100479.75;;;8.71;47.52
24620;BME280;12763;55.802;37.404;2023-04-07T05:53:11;100484.94;;;8.66;47.38
24620;BME280;12763;55.802;37.404;2023-04-07T05:55:37;100477.56;;;8.67;47.25
24620;BME280;12763;55.802;37.404;2023-04-07T05:58:06;100481.25;;;8.74;47.36
24620;BME280;12763;55.802;37.404;2023-04-07T06:00:32;100479.09;;;8.84;47.15
24620;BME280;12763;55.802;37.404;2023-04-07T06:03:05;100479.03;;;8.92;47.04
24620;BME280;12763;55.802;37.404;2023-04-07T06:05:40;100481.75;;;8.77;46.94
24620;BME280;12763;55.802;37.404;2023-04-07T06:08:09;100477.56;;;9.04;46.54
24620;BME280;12763;55.802;37.404;2023-04-07T06:10:35;100486.81;;;9.11;46.45
24620;BME280;12763;55.802;37.404;2023-04-07T06:13:01;100489.66;;;9.18;46.29
24620;BME280;12763;55.802;37.404;2023-04-07T06:15:27;100483.31;;;9.32;46.25
24620;BME280;12763;55.802;37.404;2023-04-07T06:17:52;100483.19;;;9.11;46.42
24620;BME280;12763;55.802;37.404;2023-04-07T06:20:18;100490.41;;;9.26;46.23
24620;BME280;12763;55.802;37.404;2023-04-07T06:22:47;100485.81;;;9.41;46.11
24620;BME280;12763;55.802;37.404;2023-04-07T06:25:13;100483.25;;;9.55;45.69
24620;BME280;12763;55.802;37.404;2023-04-07T06:27:39;100482.97;;;9.50;45.98
24620;BME280;12763;55.802;37.404;2023-04-07T06:30:05;100491.13;;;9.58;45.85
24620;BME280;12763;55.802;37.404;2023-04-07T06:32:31;100487.31;;;9.73;45.47
24620;BME280;12763;55.802;37.404;2023-04-07T06:34:57;100496.94;;;9.63;45.56
24620;BME280;12763;55.802;37.404;2023-04-07T06:37:23;100489.50;;;9.78;45.26
24620;BME280;12763;55.802;37.404;2023-04-07T06:39:50;100487.31;;;9.73;45.71
24620;BME280;12763;55.802;37.404;2023-04-07T06:42:16;100500.03;;;9.89;45.40
24620;BME280;12763;55.802;37.404;2023-04-07T06:44:50;100495.59;;;9.88;45.21
24620;BME280;12763;55.802;37.404;2023-04-07T06:47:16;100494.28;;;10.13;45.05
24620;BME280;12763;55.802;37.404;2023-04-07T06:49:41;100489.38;;;10.30;44.36
24620;BME280;12763;55.802;37.404;2023-04-07T06:52:07;100494.69;;;10.31;44.75
24620;BME280;12763;55.802;37.404;2023-04-07T06:54:33;100493.88;;;10.16;45.03
24620;BME280;12763;55.802;37.404;2023-04-07T06:56:59;100494.09;;;10.36;44.41
24620;BME280;12763;55.802;37.404;2023-04-07T06:59:26;100482.16;;;10.29;44.87
24620;BME280;12763;55.802;37.404;2023-04-07T07:01:51;100492.78;;;10.68;44.08
24620;BME280;12763;55.802;37.404;2023-04-07T07:04:17;100490.78;;;10.83;43.49
24620;BME280;12763;55.802;37.404;2023-04-07T07:06:42;100491.84;;;11.03;43.36
24620;BME280;12763;55.802;37.404;2023-04-07T07:09:08;100485.41;;;10.96;43.30
24620;BME280;12763;55.802;37.404;2023-04-07T07:11:34;100498.19;;;11.25;43.15
24620;BME280;12763;55.802;37.404;2023-04-07T07:14:00;100493.41;;;11.12;42.96
24620;BME280;12763;55.802;37.404;2023-04-07T07:16:26;100490.25;;;10.94;43.29
24620;BME280;12763;55.802;37.404;2023-04-07T07:18:53;100491.25;;;11.35;42.88
24620;BME280;12763;55.802;37.404;2023-04-07T07:21:19;100489.66;;;11.47;42.63
24620;BME280;12763;55.802;37.404;2023-04-07T07:23:45;100486.25;;;11.45;42.38
24620;BME280;12763;55.802;37.404;2023-04-07T07:26:11;100490.97;;;11.51;42.25
24620;BME280;12763;55.802;37.404;2023-04-07T07:28:36;100491.41;;;11.83;42.11
24620;BME280;12763;55.802;37.404;2023-04-07T07:31:11;100493.34;;;11.89;41.94
24620;BME280;12763;55.802;37.404;2023-04-07T07:33:39;100492.09;;;11.63;42.12
24620;BME280;12763;55.802;37.404;2023-04-07T07:36:06;100485.56;;;11.71;41.61
24620;BME280;12763;55.802;37.404;2023-04-07T07:38:32;100491.78;;;11.73;41.80
24620;BME280;12763;55.802;37.404;2023-04-07T07:40:58;100484.19;;;11.88;41.83
24620;BME280;12763;55.802;37.404;2023-04-07T07:43:24;100486.88;;;11.75;41.82
24620;BME280;12763;55.802;37.404;2023-04-07T07:45:50;100492.53;;;11.95;41.57
24620;BME280;12763;55.802;37.404;2023-04-07T07:48:15;100485.75;;;11.97;41.08
24620;BME280;12763;55.802;37.404;2023-04-07T07:50:41;100487.41;;;11.92;41.59
24620;BME280;12763;55.802;37.404;2023-04-07T07:53:09;100489.25;;;12.19;40.77
24620;BME280;12763;55.802;37.404;2023-04-07T07:55:35;100485.88;;;12.30;40.96
24620;BME280;12763;55.802;37.404;2023-04-07T07:58:01;100490.16;;;12.32;40.45
24620;BME280;12763;55.802;37.404;2023-04-07T08:00:27;100488.69;;;12.36;40.61
24620;BME280;12763;55.802;37.404;2023-04-07T08:02:53;100485.47;;;12.33;40.26
24620;BME280;12763;55.802;37.404;2023-04-07T08:05:19;100481.47;;;12.49;39.96
24620;BME280;12763;55.802;37.404;2023-04-07T08:07:45;100476.50;;;12.24;40.42
24620;BME280;12763;55.802;37.404;2023-04-07T08:10:12;100482.13;;;12.51;39.73
24620;BME280;12763;55.802;37.404;2023-04-07T08:12:38;100476.63;;;12.70;39.78
24620;BME280;12763;55.802;37.404;2023-04-07T08:15:04;100477.06;;;12.67;40.04
24620;BME280;12763;55.802;37.404;2023-04-07T08:17:32;100481.31;;;12.76;39.50
24620;BME280;12763;55.802;37.404;2023-04-07T08:19:59;100478.16;;;12.92;39.13
24620;BME280;12763;55.802;37.404;2023-04-07T08:22:25;100470.84;;;12.52;39.38
24620;BME280;12763;55.802;37.404;2023-04-07T08:24:51;100472.16;;;12.69;39.25
24620;BME280;12763;55.802;37.404;2023-04-07T08:27:17;100460.81;;;12.51;39.04
24620;BME280;12763;55.802;37.404;2023-04-07T08:29:43;100475.41;;;12.19;39.53
24620;BME280;12763;55.802;37.404;2023-04-07T08:32:08;100469.38;;;12.56;39.01
24620;BME280;12763;55.802;37.404;2023-04-07T08:34:34;100467.03;;;12.66;38.80
24620;BME280;12763;55.802;37.404;2023-04-07T08:37:00;100475.38;;;12.79;38.64
24620;BME280;12763;55.802;37.404;2023-04-07T08:39:26;100470.28;;;12.89;38.16
24620;BME280;12763;55.802;37.404;2023-04-07T08:41:54;100470.28;;;13.03;37.77
24620;BME280;12763;55.802;37.404;2023-04-07T08:44:21;100463.44;;;12.72;37.91
24620;BME280;12763;55.802;37.404;2023-04-07T08:46:50;100457.69;;;12.80;37.98
24620;BME280;12763;55.802;37.404;2023-04-07T08:49:16;100460.47;;;12.93;37.54
24620;BME280;12763;55.802;37.404;2023-04-07T08:51:46;100467.75;;;13.08;37.03
24620;BME280;12763;55.802;37.404;2023-04-07T08:54:17;100467.56;;;13.42;36.87
24620;BME280;12763;55.802;37.404;2023-04-07T08:56:44;100468.81;;;13.39;36.53
24620;BME280;12763;55.802;37.404;2023-04-07T08:59:11;100465.63;;;13.36;36.87
24620;BME280;12763;55.802;37.404;2023-04-07T09:01:38;100471.19;;;13.16;37.09
24620;BME280;12763;55.802;37.404;2023-04-07T09:04:04;100460.53;;;13.33;36.44
24620;BME280;12763;55.802;37.404;2023-04-07T09:06:34;100466.44;;;13.56;36.24
24620;BME280;12763;55.802;37.404;2023-04-07T09:09:01;100466.91;;;13.46;36.48
24620;BME280;12763;55.802;37.404;2023-04-07T09:11:28;100461.13;;;13.48;36.40
24620;BME280;12763;55.802;37.404;2023-04-07T09:13:55;100455.38;;;13.43;36.16
24620;BME280;12763;55.802;37.404;2023-04-07T09:16:21;100458.78;;;13.58;36.33
24620;BME280;12763;55.802;37.404;2023-04-07T09:18:48;100456.63;;;13.60;36.24
24620;BME280;12763;55.802;37.404;2023-04-07T09:21:14;100455.13;;;13.77;36.17
24620;BME280;12763;55.802;37.404;2023-04-07T09:23:41;100457.53;;;14.11;35.71
24620;BME280;12763;55.802;37.404;2023-04-07T09:28:43;100450.19;;;13.79;35.47
24620;BME280;12763;55.802;37.404;2023-04-07T09:31:10;100444.09;;;14.15;35.02
24620;BME280;12763;55.802;37.404;2023-04-07T09:33:36;100445.28;;;14.39;34.82
24620;BME280;12763;55.802;37.404;2023-04-07T09:36:03;100442.97;;;14.67;34.43
24620;BME280;12763;55.802;37.404;2023-04-07T09:38:35;100446.47;;;14.87;33.95
24620;BME280;12763;55.802;37.404;2023-04-07T09:41:20;100450.59;;;15.59;32.83
24620;BME280;12763;55.802;37.404;2023-04-07T09:43:45;100443.34;;;15.94;32.85
24620;BME280;12763;55.802;37.404;2023-04-07T09:46:12;100446.63;;;16.57;31.96
24620;BME280;12763;55.802;37.404;2023-04-07T09:48:39;100443.50;;;16.65;31.65
24620;BME280;12763;55.802;37.404;2023-04-07T09:51:15;100446.28;;;16.54;30.78
24620;BME280;12763;55.802;37.404;2023-04-07T09:56:10;100436.97;;;16.41;31.77
24620;BME280;12763;55.802;37.404;2023-04-07T09:58:39;100444.50;;;16.71;31.43
24620;BME280;12763;55.802;37.404;2023-04-07T10:01:08;100443.25;;;16.96;31.08
24620;BME280;12763;55.802;37.404;2023-04-07T10:03:36;100455.56;;;17.19;30.91
24620;BME280;12763;55.802;37.404;2023-04-07T10:06:05;100445.00;;;17.32;30.50
24620;BME280;12763;55.802;37.404;2023-04-07T10:08:33;100438.97;;;17.35;30.38
24620;BME280;12763;55.802;37.404;2023-04-07T10:11:00;100449.91;;;17.37;30.25
24620;BME280;12763;55.802;37.404;2023-04-07T10:13:32;100454.06;;;17.57;29.33
24620;BME280;12763;55.802;37.404;2023-04-07T10:15:59;100450.00;;;17.42;29.11
24620;BME280;12763;55.802;37.404;2023-04-07T10:18:31;100440.47;;;17.73;29.42
24620;BME280;12763;55.802;37.404;2023-04-07T10:21:00;100441.75;;;18.05;28.72
24620;BME280;12763;55.802;37.404;2023-04-07T10:25:58;100446.78;;;18.31;28.96
24620;BME280;12763;55.802;37.404;2023-04-07T10:28:27;100441.16;;;18.43;28.91
24620;BME280;12763;55.802;37.404;2023-04-07T10:30:55;100436.84;;;18.24;29.02
24620;BME280;12763;55.802;37.404;2023-04-07T10:33:57;100440.41;;;18.59;28.08
24620;BME280;12763;55.802;37.404;2023-04-07T10:36:23;100445.59;;;19.12;28.51
24620;BME280;12763;55.802;37.404;2023-04-07T10:44:06;100437.34;;;18.89;27.31
24620;BME280;12763;55.802;37.404;2023-04-07T10:49:10;100444.22;;;18.53;28.31
24620;BME280;12763;55.802;37.404;2023-04-07T10:51:38;100452.03;;;18.67;28.63
24620;BME280;12763;55.802;37.404;2023-04-07T10:54:19;100455.31;;;18.64;27.38
24620;BME280;12763;55.802;37.404;2023-04-07T10:57:06;100444.91;;;18.88;27.14
24620;BME280;12763;55.802;37.404;2023-04-07T10:59:38;100448.38;;;18.95;27.84
24620;BME280;12763;55.802;37.404;2023-04-07T11:04:39;100446.03;;;19.37;26.38
24620;BME280;12763;55.802;37.404;2023-04-07T11:07:07;100450.78;;;19.36;27.39
24620;BME280;12763;55.802;37.404;2023-04-07T11:09:33;100444.53;;;19.63;27.24
24620;BME280;12763;55.802;37.404;2023-04-07T11:11:59;100443.09;;;19.60;27.27
24620;BME280;12763;55.802;37.404;2023-04-07T11:14:26;100438.94;;;20.01;26.66
24620;BME280;12763;55.802;37.404;2023-04-07T11:16:52;100440.28;;;20.15;26.54
24620;BME280;12763;55.802;37.404;2023-04-07T11:19:18;100441.41;;;20.36;26.23
24620;BME280;12763;55.802;37.404;2023-04-07T11:21:44;100431.16;;;20.46;26.13
24620;BME280;12763;55.802;37.404;2023-04-07T11:24:33;100442.09;;;20.96;25.44
24620;BME280;12763;55.802;37.404;2023-04-07T11:26:59;100445.19;;;21.22;25.61
24620;BME280;12763;55.802;37.404;2023-04-07T11:29:30;100439.38;;;21.65;24.50
24620;BME280;12763;55.802;37.404;2023-04-07T11:32:00;100426.59;;;21.84;24.42
24620;BME280;12763;55.802;37.404;2023-04-07T11:34:35;100437.06;;;21.57;23.91
24620;BME280;12763;55.802;37.404;2023-04-07T11:37:19;100427.19;;;22.38;23.21
24620;BME280;12763;55.802;37.404;2023-04-07T11:39:52;100431.84;;;22.74;23.47
24620;BME280;12763;55.802;37.404;2023-04-07T11:42:50;100437.25;;;22.29;23.06
24620;BME280;12763;55.802;37.404;2023-04-07T11:45:17;100428.63;;;22.46;23.81
24620;BME280;12763;55.802;37.404;2023-04-07T11:47:45;100428.66;;;22.56;23.57
24620;BME280;12763;55.802;37.404;2023-04-07T11:50:10;100427.53;;;22.57;23.81
24620;BME280;12763;55.802;37.404;2023-04-07T11:52:41;100428.25;;;22.99;22.88
24620;BME280;12763;55.802;37.404;2023-04-07T11:55:19;100423.09;;;22.66;22.66
24620;BME280;12763;55.802;37.404;2023-04-07T11:57:46;100427.13;;;23.10;23.12
24620;BME280;12763;55.802;37.404;2023-04-07T12:00:13;100436.13;;;23.17;22.79
24620;BME280;12763;55.802;37.404;2023-04-07T12:02:43;100423.22;;;23.77;22.62
24620;BME280;12763;55.802;37.404;2023-04-07T12:05:09;100424.53;;;24.20;22.41
24620;BME280;12763;55.802;37.404;2023-04-07T12:07:36;100419.69;;;24.30;22.28
24620;BME280;12763;55.802;37.404;2023-04-07T12:10:21;100419.31;;;25.06;20.84
24620;BME280;12763;55.802;37.404;2023-04-07T12:12:48;100415.88;;;25.14;21.32
24620;BME280;12763;55.802;37.404;2023-04-07T12:15:14;100418.66;;;24.75;21.81
24620;BME280;12763;55.802;37.404;2023-04-07T12:17:47;100422.03;;;24.13;21.57
24620;BME280;12763;55.802;37.404;2023-04-07T12:20:14;100428.28;;;23.70;22.55
24620;BME280;12763;55.802;37.404;2023-04-07T12:22:40;100424.88;;;23.78;22.45
24620;BME280;12763;55.802;37.404;2023-04-07T12:25:07;100429.38;;;23.94;22.16
24620;BME280;12763;55.802;37.404;2023-04-07T12:27:33;100427.72;;;23.73;22.07
24620;BME280;12763;55.802;37.404;2023-04-07T12:29:58;100422.84;;;24.09;22.44
24620;BME280;12763;55.802;37.404;2023-04-07T12:32:24;100423.16;;;24.07;21.84
24620;BME280;12763;55.802;37.404;2023-04-07T12:34:50;100420.31;;;24.07;21.79
24620;BME280;12763;55.802;37.404;2023-04-07T12:37:16;100415.88;;;23.76;22.06
24620;BME280;12763;55.802;37.404;2023-04-07T12:39:42;100419.28;;;23.48;22.51
24620;BME280;12763;55.802;37.404;2023-04-07T12:42:08;100428.00;;;23.36;22.59
24620;BME280;12763;55.802;37.404;2023-04-07T12:44:39;100416.78;;;23.41;22.08
24620;BME280;12763;55.802;37.404;2023-04-07T12:47:05;100424.06;;;23.62;22.23
24620;BME280;12763;55.802;37.404;2023-04-07T12:49:30;100418.41;;;23.87;21.66
24620;BME280;12763;55.802;37.404;2023-04-07T12:51:56;100416.38;;;24.03;21.99
24620;BME280;12763;55.802;37.404;2023-04-07T12:54:22;100418.94;;;22.84;22.33
24620;BME280;12763;55.802;37.404;2023-04-07T12:56:48;100418.13;;;23.13;22.56
24620;BME280;12763;55.802;37.404;2023-04-07T12:59:14;100413.09;;;23.61;22.37
24620;BME280;12763;55.802;37.404;2023-04-07T13:01:40;100409.69;;;23.59;21.65
24620;BME280;12763;55.802;37.404;2023-04-07T13:04:07;100409.34;;;24.16;21.91
24620;BME280;12763;55.802;37.404;2023-04-07T13:06:33;100410.31;;;24.50;21.38
24620;BME280;12763;55.802;37.404;2023-04-07T13:08:59;100418.41;;;24.67;21.09
24620;BME280;12763;55.802;37.404;2023-04-07T13:11:24;100418.63;;;24.85;21.18
24620;BME280;12763;55.802;37.404;2023-04-07T13:13:50;100417.41;;;25.35;20.51